Terminal Aerodrome Forecast
Issued by NWS

Home | Current Version | Previous Version | Text Only | Print | Product List | Glossary Off
Versions: 1 2 3 4 5 6 7 8 9 10 11 12 13 14 15 16 17 18 19 20

000
FTUS43 KICT 260520
TAFSLN
TAF
KSLN 260520Z 2606/2706 18012G21KT P6SM VCTS SCT040CB BKN100
      TEMPO 2606/2609 VRB15G25KT 5SM SHRA OVC030
     FM261100 23009KT P6SM SCT008 SCT150
     FM261700 27008KT P6SM SCT040
     FM262000 26010KT P6SM VCTS SCT040CB BKN080=

USA.gov is the U.S. government's official web portal to all federal, state and local government web resources and services.